Terminal Aerodrome Forecast
Issued by NWS

Home | Current Version | Previous Version | Text Only | Print | Product List | Glossary On
Versions: 1 2 3 4 5 6 7 8 9 10 11 12 13 14
401
FTUS45 KRIW 211733
TAFLND
TAF
KLND 211733Z 2118/2218 11006KT P6SM SCT025 SCT100
     FM220300 26006KT P6SM BKN100
     FM221200 26010KT P6SM SCT050 BKN100
     FM221700 28010KT P6SM BKN100 WS020/32025KT=

USA.gov is the U.S. government's official web portal to all federal, state and local government web resources and services.